Aviation Digital Data Service (ADDS)

Output produced by METARs form (0328 UTC 30 May 2017)
found at http://www.aviationweather.gov/adds/metars/
 
MYGF 292230Z 3000/3100 00000KT 9999 FEW020 
     FM301200 14006KT FEW015CB SCT018
       
MYNN 292230Z 3000/3100 00000KT 9999 FEW020 
     BECMG 3009/3011 13010KT SCT020